createdAt,value
2022-12-25T12:34:53.742Z,30.75
2022-12-25T12:39:57.793Z,20.15
2022-12-25T12:45:11.187Z,25.20
2022-12-25T12:50:43.349Z,31.48
2022-12-25T12:55:45.427Z,24.95
2022-12-25T13:00:58.617Z,24.65
2022-12-25T13:06:13.578Z,25.83
2022-12-25T13:11:19.771Z,22.55
2022-12-25T13:16:40.444Z,21.33
2022-12-25T13:21:54.704Z,18.05
2022-12-25T13:26:56.892Z,11.20
2022-12-25T13:32:01.280Z,12.00
2022-12-25T13:37:22.591Z,10.20
2022-12-25T13:42:28.665Z,10.60
2022-12-25T13:47:37.788Z,11.32
2022-12-25T13:52:40.268Z,9.02
2022-12-25T13:57:53.207Z,12.25
2022-12-25T14:02:56.022Z,13.18
2022-12-25T14:08:01.228Z,12.73
2022-12-25T14:13:08.005Z,17.00
2022-12-25T14:18:20.337Z,19.60
2022-12-25T14:23:22.827Z,15.90
2022-12-25T14:28:33.311Z,14.88
2022-12-25T14:33:38.819Z,15.50
2022-12-25T14:38:43.091Z,21.77
2022-12-25T14:43:55.876Z,22.70
2022-12-25T14:49:25.282Z,16.70
2022-12-25T14:54:27.859Z,25.08
2022-12-25T14:59:30.528Z,20.77
2022-12-25T15:09:36.750Z,19.67
2022-12-25T15:14:40.781Z,17.92
2022-12-25T15:19:43.966Z,26.50
2022-12-25T15:24:46.465Z,38.90
2022-12-25T15:35:21.045Z,25.38
2022-12-25T15:40:23.426Z,19.75
2022-12-25T15:45:28.563Z,18.05
2022-12-25T15:50:32.928Z,14.45
2022-12-25T15:55:35.308Z,16.92
2022-12-25T16:00:37.811Z,28.33
2022-12-25T16:05:40.223Z,23.13
2022-12-25T16:10:42.356Z,24.00
2022-12-25T16:15:45.383Z,26.30
2022-12-25T16:20:48.181Z,28.60
2022-12-25T16:25:50.570Z,29.65
2022-12-25T16:30:52.778Z,25.75
2022-12-25T16:35:55.615Z,24.67
2022-12-25T16:41:00.358Z,20.95
2022-12-25T16:46:13.256Z,23.27
2022-12-25T16:51:21.096Z,20.40
2022-12-25T16:56:28.659Z,25.92
2022-12-25T17:01:30.966Z,34.25
2022-12-25T17:06:33.172Z,35.92
2022-12-25T17:11:35.313Z,35.15
2022-12-25T17:16:38.836Z,32.47
2022-12-25T17:21:41.184Z,31.50
2022-12-25T17:26:44.260Z,31.08
2022-12-25T17:31:46.524Z,29.77
2022-12-25T17:36:48.660Z,21.58
2022-12-25T17:41:51.263Z,26.98
2022-12-25T17:46:53.558Z,24.80
2022-12-25T17:51:55.806Z,20.08
2022-12-25T17:56:58.024Z,22.52
2022-12-25T18:02:00.718Z,24.65
2022-12-25T18:12:06.663Z,23.25
2022-12-25T18:17:08.999Z,27.55
2022-12-25T18:22:11.132Z,28.77
2022-12-25T18:27:13.294Z,27.45
2022-12-25T18:32:15.708Z,27.42
2022-12-25T18:37:18.695Z,24.42
2022-12-25T18:42:39.413Z,20.50
2022-12-25T18:52:48.731Z,22.80
2022-12-25T18:57:53.831Z,34.22
2022-12-25T19:02:58.604Z,27.02
